sensor_id;sensor_type;location;lat;lon;timestamp;temperature;humidity
36790;DHT22;22740;52.182;8.780;2023-04-24T00:00:26;11.30;99.90
36790;DHT22;22740;52.182;8.780;2023-04-24T00:06:34;11.30;99.90
36790;DHT22;22740;52.182;8.780;2023-04-24T00:12:43;11.20;99.90
36790;DHT22;22740;52.182;8.780;2023-04-24T00:18:51;11.10;99.90
36790;DHT22;22740;52.182;8.780;2023-04-24T00:25:00;11.00;99.90
36790;DHT22;22740;52.182;8.780;2023-04-24T00:31:08;10.90;99.90
36790;DHT22;22740;52.182;8.780;2023-04-24T00:37:17;10.80;99.90
36790;DHT22;22740;52.182;8.780;2023-04-24T00:43:25;10.70;99.90
36790;DHT22;22740;52.182;8.780;2023-04-24T00:49:41;10.70;99.90
36790;DHT22;22740;52.182;8.780;2023-04-24T00:55:49;10.60;99.90
36790;DHT22;22740;52.182;8.780;2023-04-24T01:01:58;10.50;99.90
36790;DHT22;22740;52.182;8.780;2023-04-24T01:08:06;10.50;99.90
36790;DHT22;22740;52.182;8.780;2023-04-24T01:14:15;10.40;99.90
36790;DHT22;22740;52.182;8.780;2023-04-24T01:20:24;10.40;99.90
36790;DHT22;22740;52.182;8.780;2023-04-24T01:26:34;10.50;99.90
36790;DHT22;22740;52.182;8.780;2023-04-24T01:32:53;10.60;99.90
36790;DHT22;22740;52.182;8.780;2023-04-24T01:39:01;10.60;99.90
36790;DHT22;22740;52.182;8.780;2023-04-24T01:45:11;10.50;99.90
36790;DHT22;22740;52.182;8.780;2023-04-24T01:51:20;10.30;99.90
36790;DHT22;22740;52.182;8.780;2023-04-24T01:57:28;10.30;99.90
36790;DHT22;22740;52.182;8.780;2023-04-24T02:03:39;10.30;99.90
36790;DHT22;22740;52.182;8.780;2023-04-24T02:09:47;10.30;99.90
36790;DHT22;22740;52.182;8.780;2023-04-24T02:15:58;10.10;99.90
36790;DHT22;22740;52.182;8.780;2023-04-24T02:22:06;10.10;99.90
36790;DHT22;22740;52.182;8.780;2023-04-24T02:28:15;10.10;99.90
36790;DHT22;22740;52.182;8.780;2023-04-24T02:34:23;10.10;99.90
36790;DHT22;22740;52.182;8.780;2023-04-24T02:40:32;10.10;99.90
36790;DHT22;22740;52.182;8.780;2023-04-24T02:46:41;10.10;99.90
36790;DHT22;22740;52.182;8.780;2023-04-24T02:52:50;9.90;99.90
36790;DHT22;22740;52.182;8.780;2023-04-24T02:58:58;9.90;99.90
36790;DHT22;22740;52.182;8.780;2023-04-24T03:05:06;9.90;99.90
36790;DHT22;22740;52.182;8.780;2023-04-24T03:11:15;9.90;99.90
36790;DHT22;22740;52.182;8.780;2023-04-24T03:17:24;9.80;99.90
36790;DHT22;22740;52.182;8.780;2023-04-24T03:23:39;9.80;99.90
36790;DHT22;22740;52.182;8.780;2023-04-24T03:29:47;9.70;99.90
36790;DHT22;22740;52.182;8.780;2023-04-24T03:35:55;9.70;99.90
36790;DHT22;22740;52.182;8.780;2023-04-24T03:42:04;9.80;99.90
36790;DHT22;22740;52.182;8.780;2023-04-24T03:48:12;9.90;99.90
36790;DHT22;22740;52.182;8.780;2023-04-24T03:54:22;9.90;99.90
36790;DHT22;22740;52.182;8.780;2023-04-24T04:00:30;10.00;99.90
36790;DHT22;22740;52.182;8.780;2023-04-24T04:06:40;10.10;99.90
36790;DHT22;22740;52.182;8.780;2023-04-24T04:12:48;10.20;99.90
36790;DHT22;22740;52.182;8.780;2023-04-24T04:18:57;10.10;99.90
36790;DHT22;22740;52.182;8.780;2023-04-24T04:25:06;10.10;99.90
36790;DHT22;22740;52.182;8.780;2023-04-24T04:31:22;10.00;99.90
36790;DHT22;22740;52.182;8.780;2023-04-24T04:37:32;10.00;99.90
36790;DHT22;22740;52.182;8.780;2023-04-24T04:43:41;10.00;99.90
36790;DHT22;22740;52.182;8.780;2023-04-24T04:49:50;10.10;99.90
36790;DHT22;22740;52.182;8.780;2023-04-24T04:56:00;10.10;99.90
36790;DHT22;22740;52.182;8.780;2023-04-24T05:02:08;10.10;99.90
36790;DHT22;22740;52.182;8.780;2023-04-24T05:08:18;10.20;99.90
36790;DHT22;22740;52.182;8.780;2023-04-24T05:14:28;10.20;99.90
36790;DHT22;22740;52.182;8.780;2023-04-24T05:20:37;10.30;99.90
36790;DHT22;22740;52.182;8.780;2023-04-24T05:26:45;10.10;99.90
36790;DHT22;22740;52.182;8.780;2023-04-24T05:32:54;9.90;99.90
36790;DHT22;22740;52.182;8.780;2023-04-24T05:39:03;9.90;99.90
36790;DHT22;22740;52.182;8.780;2023-04-24T05:45:13;9.80;99.90
36790;DHT22;22740;52.182;8.780;2023-04-24T05:51:24;9.70;99.90
36790;DHT22;22740;52.182;8.780;2023-04-24T05:57:36;9.70;99.90
36790;DHT22;22740;52.182;8.780;2023-04-24T06:03:44;9.60;99.90
36790;DHT22;22740;52.182;8.780;2023-04-24T06:09:53;9.60;99.90
36790;DHT22;22740;52.182;8.780;2023-04-24T06:16:02;9.70;99.90
36790;DHT22;22740;52.182;8.780;2023-04-24T06:22:11;9.80;99.90
36790;DHT22;22740;52.182;8.780;2023-04-24T06:28:20;9.70;99.90
36790;DHT22;22740;52.182;8.780;2023-04-24T06:34:29;9.70;99.90
36790;DHT22;22740;52.182;8.780;2023-04-24T06:40:39;9.90;99.90
36790;DHT22;22740;52.182;8.780;2023-04-24T06:46:48;9.90;99.90
36790;DHT22;22740;52.182;8.780;2023-04-24T06:52:57;10.00;99.90
36790;DHT22;22740;52.182;8.780;2023-04-24T06:59:05;9.90;99.90
36790;DHT22;22740;52.182;8.780;2023-04-24T07:05:13;9.80;99.90
36790;DHT22;22740;52.182;8.780;2023-04-24T07:11:23;9.90;99.90
36790;DHT22;22740;52.182;8.780;2023-04-24T07:17:33;9.80;99.90
36790;DHT22;22740;52.182;8.780;2023-04-24T07:23:43;9.90;99.90
36790;DHT22;22740;52.182;8.780;2023-04-24T07:29:51;9.90;99.90
36790;DHT22;22740;52.182;8.780;2023-04-24T07:35:59;9.90;99.90
36790;DHT22;22740;52.182;8.780;2023-04-24T07:42:08;9.80;99.90
36790;DHT22;22740;52.182;8.780;2023-04-24T07:48:17;9.80;99.90
36790;DHT22;22740;52.182;8.780;2023-04-24T07:54:34;9.90;99.90
36790;DHT22;22740;52.182;8.780;2023-04-24T08:00:43;9.80;99.90
36790;DHT22;22740;52.182;8.780;2023-04-24T08:06:52;10.00;99.90
36790;DHT22;22740;52.182;8.780;2023-04-24T08:13:01;10.10;99.90
36790;DHT22;22740;52.182;8.780;2023-04-24T08:19:10;10.40;99.90
36790;DHT22;22740;52.182;8.780;2023-04-24T08:25:26;10.30;99.90
36790;DHT22;22740;52.182;8.780;2023-04-24T08:31:34;10.30;99.90
36790;DHT22;22740;52.182;8.780;2023-04-24T08:37:43;10.20;99.90
36790;DHT22;22740;52.182;8.780;2023-04-24T08:43:52;10.20;99.90
36790;DHT22;22740;52.182;8.780;2023-04-24T08:50:03;10.10;99.90
36790;DHT22;22740;52.182;8.780;2023-04-24T08:56:13;10.10;99.90
36790;DHT22;22740;52.182;8.780;2023-04-24T09:02:23;10.10;99.90
36790;DHT22;22740;52.182;8.780;2023-04-24T09:08:33;10.20;99.90
36790;DHT22;22740;52.182;8.780;2023-04-24T09:14:41;10.60;99.90
36790;DHT22;22740;52.182;8.780;2023-04-24T09:21:03;11.40;99.90
36790;DHT22;22740;52.182;8.780;2023-04-24T09:27:12;11.00;99.90
36790;DHT22;22740;52.182;8.780;2023-04-24T09:33:21;10.60;99.90
36790;DHT22;22740;52.182;8.780;2023-04-24T09:39:29;10.50;99.90
36790;DHT22;22740;52.182;8.780;2023-04-24T09:45:39;10.10;99.90
36790;DHT22;22740;52.182;8.780;2023-04-24T09:51:47;10.10;99.90
36790;DHT22;22740;52.182;8.780;2023-04-24T09:58:00;10.20;99.90
36790;DHT22;22740;52.182;8.780;2023-04-24T10:04:23;10.00;99.90
36790;DHT22;22740;52.182;8.780;2023-04-24T10:10:35;10.00;99.90
36790;DHT22;22740;52.182;8.780;2023-04-24T10:16:45;10.00;99.90
36790;DHT22;22740;52.182;8.780;2023-04-24T10:22:58;10.10;99.90
36790;DHT22;22740;52.182;8.780;2023-04-24T10:29:07;10.10;99.90
36790;DHT22;22740;52.182;8.780;2023-04-24T10:35:19;10.30;99.90
36790;DHT22;22740;52.182;8.780;2023-04-24T10:41:30;10.20;99.90
36790;DHT22;22740;52.182;8.780;2023-04-24T10:48:03;10.10;99.90
36790;DHT22;22740;52.182;8.780;2023-04-24T10:54:27;9.80;99.90
36790;DHT22;22740;52.182;8.780;2023-04-24T11:00:40;10.00;99.90
36790;DHT22;22740;52.182;8.780;2023-04-24T11:06:49;10.40;99.90
36790;DHT22;22740;52.182;8.780;2023-04-24T11:13:02;10.00;99.90
36790;DHT22;22740;52.182;8.780;2023-04-24T11:25:24;9.80;99.90
36790;DHT22;22740;52.182;8.780;2023-04-24T11:31:44;9.80;99.90
36790;DHT22;22740;52.182;8.780;2023-04-24T11:38:01;9.70;99.90
36790;DHT22;22740;52.182;8.780;2023-04-24T11:44:25;9.40;99.90
36790;DHT22;22740;52.182;8.780;2023-04-24T11:50:33;9.40;99.90
36790;DHT22;22740;52.182;8.780;2023-04-24T11:56:46;9.20;99.90
36790;DHT22;22740;52.182;8.780;2023-04-24T12:03:11;9.20;99.90
36790;DHT22;22740;52.182;8.780;2023-04-24T12:09:19;9.20;99.90
36790;DHT22;22740;52.182;8.780;2023-04-24T12:15:28;9.30;99.90
36790;DHT22;22740;52.182;8.780;2023-04-24T12:21:37;9.40;99.90
36790;DHT22;22740;52.182;8.780;2023-04-24T12:27:54;9.20;99.90
36790;DHT22;22740;52.182;8.780;2023-04-24T12:34:03;9.10;99.90
36790;DHT22;22740;52.182;8.780;2023-04-24T12:40:12;8.80;99.90
36790;DHT22;22740;52.182;8.780;2023-04-24T12:46:21;8.70;99.90
36790;DHT22;22740;52.182;8.780;2023-04-24T12:52:30;8.70;99.90
36790;DHT22;22740;52.182;8.780;2023-04-24T12:58:39;8.70;99.90
36790;DHT22;22740;52.182;8.780;2023-04-24T13:04:49;8.70;99.90
36790;DHT22;22740;52.182;8.780;2023-04-24T13:10:57;8.70;99.90
36790;DHT22;22740;52.182;8.780;2023-04-24T13:17:13;8.70;99.90
36790;DHT22;22740;52.182;8.780;2023-04-24T13:23:35;8.60;99.90
36790;DHT22;22740;52.182;8.780;2023-04-24T13:29:44;8.70;99.90
36790;DHT22;22740;52.182;8.780;2023-04-24T13:35:52;8.60;99.90
36790;DHT22;22740;52.182;8.780;2023-04-24T13:42:00;8.30;99.90
36790;DHT22;22740;52.182;8.780;2023-04-24T13:48:08;8.30;99.90
36790;DHT22;22740;52.182;8.780;2023-04-24T13:54:20;8.20;99.90
36790;DHT22;22740;52.182;8.780;2023-04-24T14:00:29;8.40;99.90
36790;DHT22;22740;52.182;8.780;2023-04-24T14:06:39;8.40;99.90
36790;DHT22;22740;52.182;8.780;2023-04-24T14:12:48;8.20;99.90
36790;DHT22;22740;52.182;8.780;2023-04-24T14:18:56;8.40;99.90
36790;DHT22;22740;52.182;8.780;2023-04-24T14:25:06;8.50;99.90
36790;DHT22;22740;52.182;8.780;2023-04-24T14:31:15;8.50;99.90
36790;DHT22;22740;52.182;8.780;2023-04-24T14:37:23;8.50;99.90
36790;DHT22;22740;52.182;8.780;2023-04-24T14:43:32;8.70;99.90
36790;DHT22;22740;52.182;8.780;2023-04-24T14:49:43;8.80;99.90
36790;DHT22;22740;52.182;8.780;2023-04-24T14:55:53;8.80;99.90
36790;DHT22;22740;52.182;8.780;2023-04-24T15:02:01;8.90;99.90
36790;DHT22;22740;52.182;8.780;2023-04-24T15:08:17;8.80;99.90
36790;DHT22;22740;52.182;8.780;2023-04-24T15:14:25;8.80;99.90
36790;DHT22;22740;52.182;8.780;2023-04-24T15:20:34;8.80;99.90
36790;DHT22;22740;52.182;8.780;2023-04-24T15:26:43;8.70;99.90
36790;DHT22;22740;52.182;8.780;2023-04-24T15:33:01;8.80;99.90
36790;DHT22;22740;52.182;8.780;2023-04-24T15:39:10;8.70;99.90
36790;DHT22;22740;52.182;8.780;2023-04-24T15:45:19;8.90;99.90
36790;DHT22;22740;52.182;8.780;2023-04-24T15:51:27;8.70;99.90
36790;DHT22;22740;52.182;8.780;2023-04-24T15:57:35;8.70;99.90
36790;DHT22;22740;52.182;8.780;2023-04-24T16:03:43;8.60;99.90
36790;DHT22;22740;52.182;8.780;2023-04-24T16:09:52;8.50;99.90
36790;DHT22;22740;52.182;8.780;2023-04-24T16:16:01;8.40;99.90
36790;DHT22;22740;52.182;8.780;2023-04-24T16:22:10;8.40;99.90
36790;DHT22;22740;52.182;8.780;2023-04-24T16:28:19;8.30;99.90
36790;DHT22;22740;52.182;8.780;2023-04-24T16:34:28;8.30;99.90
36790;DHT22;22740;52.182;8.780;2023-04-24T16:40:38;8.40;99.90
36790;DHT22;22740;52.182;8.780;2023-04-24T16:46:46;8.40;99.90
36790;DHT22;22740;52.182;8.780;2023-04-24T16:52:55;8.40;99.90
36790;DHT22;22740;52.182;8.780;2023-04-24T16:59:03;8.40;99.90
36790;DHT22;22740;52.182;8.780;2023-04-24T17:05:11;8.40;99.90
36790;DHT22;22740;52.182;8.780;2023-04-24T17:11:19;8.20;99.90
36790;DHT22;22740;52.182;8.780;2023-04-24T17:17:31;8.30;99.90
36790;DHT22;22740;52.182;8.780;2023-04-24T17:23:40;8.40;99.90
36790;DHT22;22740;52.182;8.780;2023-04-24T17:29:49;8.70;99.90
36790;DHT22;22740;52.182;8.780;2023-04-24T17:36:00;8.80;99.90
36790;DHT22;22740;52.182;8.780;2023-04-24T17:42:09;9.00;99.90
36790;DHT22;22740;52.182;8.780;2023-04-24T17:48:18;9.00;99.90
36790;DHT22;22740;52.182;8.780;2023-04-24T17:54:34;8.70;99.90
36790;DHT22;22740;52.182;8.780;2023-04-24T18:00:45;8.50;99.90
36790;DHT22;22740;52.182;8.780;2023-04-24T18:06:54;8.30;99.90
36790;DHT22;22740;52.182;8.780;2023-04-24T18:13:03;8.10;99.90
36790;DHT22;22740;52.182;8.780;2023-04-24T18:19:11;8.10;99.90
36790;DHT22;22740;52.182;8.780;2023-04-24T18:25:27;8.00;99.90
36790;DHT22;22740;52.182;8.780;2023-04-24T18:31:35;8.00;99.90
36790;DHT22;22740;52.182;8.780;2023-04-24T18:37:43;7.90;99.90
36790;DHT22;22740;52.182;8.780;2023-04-24T18:43:52;7.80;99.90
36790;DHT22;22740;52.182;8.780;2023-04-24T18:50:00;7.80;99.90
36790;DHT22;22740;52.182;8.780;2023-04-24T18:56:09;7.50;99.90
36790;DHT22;22740;52.182;8.780;2023-04-24T19:02:17;7.40;99.90
36790;DHT22;22740;52.182;8.780;2023-04-24T19:08:25;7.30;99.90
36790;DHT22;22740;52.182;8.780;2023-04-24T19:14:34;7.20;99.90
36790;DHT22;22740;52.182;8.780;2023-04-24T19:20:43;7.20;99.90
36790;DHT22;22740;52.182;8.780;2023-04-24T19:26:52;7.00;99.90
36790;DHT22;22740;52.182;8.780;2023-04-24T19:33:08;7.10;99.90
36790;DHT22;22740;52.182;8.780;2023-04-24T19:39:17;7.10;99.90
36790;DHT22;22740;52.182;8.780;2023-04-24T19:45:27;7.20;99.90
36790;DHT22;22740;52.182;8.780;2023-04-24T19:51:35;7.20;99.90
36790;DHT22;22740;52.182;8.780;2023-04-24T19:57:44;7.10;99.90
36790;DHT22;22740;52.182;8.780;2023-04-24T20:03:53;7.00;99.90
36790;DHT22;22740;52.182;8.780;2023-04-24T20:10:03;7.00;99.90
36790;DHT22;22740;52.182;8.780;2023-04-24T20:16:11;7.20;99.90
36790;DHT22;22740;52.182;8.780;2023-04-24T20:22:26;7.30;99.90
36790;DHT22;22740;52.182;8.780;2023-04-24T20:28:34;7.50;99.90
36790;DHT22;22740;52.182;8.780;2023-04-24T20:34:50;7.50;99.90
36790;DHT22;22740;52.182;8.780;2023-04-24T20:40:59;7.40;99.90
36790;DHT22;22740;52.182;8.780;2023-04-24T20:47:08;7.50;99.90
36790;DHT22;22740;52.182;8.780;2023-04-24T20:53:17;7.40;99.90
36790;DHT22;22740;52.182;8.780;2023-04-24T20:59:26;7.50;99.90
36790;DHT22;22740;52.182;8.780;2023-04-24T21:05:34;7.50;99.90
36790;DHT22;22740;52.182;8.780;2023-04-24T21:11:43;7.50;99.90
36790;DHT22;22740;52.182;8.780;2023-04-24T21:17:52;7.60;99.90
36790;DHT22;22740;52.182;8.780;2023-04-24T21:24:01;7.60;99.90
36790;DHT22;22740;52.182;8.780;2023-04-24T21:30:12;7.60;99.90
36790;DHT22;22740;52.182;8.780;2023-04-24T21:36:20;7.40;99.90
36790;DHT22;22740;52.182;8.780;2023-04-24T21:42:31;7.10;99.90
36790;DHT22;22740;52.182;8.780;2023-04-24T21:48:40;7.10;99.90
36790;DHT22;22740;52.182;8.780;2023-04-24T21:54:49;7.10;99.90
36790;DHT22;22740;52.182;8.780;2023-04-24T22:00:58;7.20;99.90
36790;DHT22;22740;52.182;8.780;2023-04-24T22:07:07;7.30;99.90
36790;DHT22;22740;52.182;8.780;2023-04-24T22:13:15;7.20;99.90
36790;DHT22;22740;52.182;8.780;2023-04-24T22:19:27;7.10;99.90
36790;DHT22;22740;52.182;8.780;2023-04-24T22:25:35;7.10;99.90
36790;DHT22;22740;52.182;8.780;2023-04-24T22:31:44;7.20;99.90
36790;DHT22;22740;52.182;8.780;2023-04-24T22:37:55;7.30;99.90
36790;DHT22;22740;52.182;8.780;2023-04-24T22:44:03;7.20;99.90
36790;DHT22;22740;52.182;8.780;2023-04-24T22:50:12;7.10;99.90
36790;DHT22;22740;52.182;8.780;2023-04-24T22:56:21;7.10;99.90
36790;DHT22;22740;52.182;8.780;2023-04-24T23:02:30;7.10;99.90
36790;DHT22;22740;52.182;8.780;2023-04-24T23:08:39;7.20;99.90
36790;DHT22;22740;52.182;8.780;2023-04-24T23:14:48;7.00;99.90
36790;DHT22;22740;52.182;8.780;2023-04-24T23:20:57;7.00;99.90
36790;DHT22;22740;52.182;8.780;2023-04-24T23:27:16;6.90;99.90
36790;DHT22;22740;52.182;8.780;2023-04-24T23:33:24;6.70;99.90
36790;DHT22;22740;52.182;8.780;2023-04-24T23:39:33;6.70;99.90
36790;DHT22;22740;52.182;8.780;2023-04-24T23:45:42;6.70;99.90
36790;DHT22;22740;52.182;8.780;2023-04-24T23:51:51;6.80;99.90
36790;DHT22;22740;52.182;8.780;2023-04-24T23:58:00;6.80;99.90
